createdAt,value
2023-01-08T00:00:13.579Z,22.67
2023-01-08T00:01:16.212Z,22.67
2023-01-08T00:02:18.872Z,22.67
2023-01-08T00:03:21.414Z,22.66
2023-01-08T00:04:25.519Z,22.66
2023-01-08T00:05:27.957Z,22.66
2023-01-08T00:06:30.818Z,22.66
2023-01-08T00:07:33.097Z,22.66
2023-01-08T00:08:35.386Z,22.66
2023-01-08T00:09:37.784Z,22.67
2023-01-08T00:10:40.265Z,22.67
2023-01-08T00:11:43.776Z,22.67
2023-01-08T00:12:46.305Z,22.67
2023-01-08T00:13:50.311Z,22.67
2023-01-08T00:14:52.657Z,22.67
2023-01-08T00:15:56.751Z,22.67
2023-01-08T00:17:00.782Z,22.67
2023-01-08T00:18:05.847Z,22.66
2023-01-08T00:19:11.099Z,22.66
2023-01-08T00:20:14.939Z,22.67
2023-01-08T00:21:17.464Z,22.66
2023-01-08T00:22:20.720Z,22.65
2023-01-08T00:23:24.070Z,22.65
2023-01-08T00:24:28.234Z,22.66
2023-01-08T00:25:30.595Z,22.66
2023-01-08T00:26:33.677Z,22.66
2023-01-08T00:27:37.489Z,22.65
2023-01-08T00:28:40.225Z,22.66
2023-01-08T00:29:42.528Z,22.66
2023-01-08T00:30:46.962Z,22.66
2023-01-08T00:31:49.479Z,22.66
2023-01-08T00:32:52.089Z,22.66
2023-01-08T00:33:54.773Z,22.66
2023-01-08T00:34:58.325Z,22.67
2023-01-08T00:36:00.947Z,22.68
2023-01-08T00:37:03.622Z,22.67
2023-01-08T00:38:06.645Z,22.67
2023-01-08T00:39:09.164Z,22.67
2023-01-08T00:40:13.855Z,22.67
2023-01-08T00:41:16.490Z,22.67
2023-01-08T00:42:19.152Z,22.68
2023-01-08T00:43:21.374Z,22.67
2023-01-08T00:44:23.676Z,22.67
2023-01-08T00:45:26.959Z,22.67
2023-01-08T00:46:30.309Z,22.67
2023-01-08T00:47:33.123Z,22.67
2023-01-08T00:48:38.479Z,22.67
2023-01-08T00:49:41.696Z,22.67
2023-01-08T00:50:44.368Z,22.67
2023-01-08T00:51:46.852Z,22.67
2023-01-08T00:52:49.538Z,22.67
2023-01-08T00:53:52.022Z,22.67
2023-01-08T00:54:54.443Z,22.67
2023-01-08T00:57:15.046Z,22.78
2023-01-08T00:58:17.312Z,22.66
2023-01-08T00:59:20.049Z,22.67
2023-01-08T01:00:22.835Z,22.66
2023-01-08T01:01:25.425Z,22.61
2023-01-08T01:02:28.657Z,22.61
2023-01-08T01:03:33.650Z,22.67
2023-01-08T01:04:37.180Z,22.67
2023-01-08T01:05:40.254Z,22.66
2023-01-08T01:06:43.275Z,22.66
2023-01-08T01:07:45.677Z,22.66
2023-01-08T01:08:48.393Z,22.66
2023-01-08T01:09:50.833Z,22.67
2023-01-08T01:10:53.626Z,22.67
2023-01-08T01:11:57.188Z,22.67
2023-01-08T01:12:59.891Z,22.67
2023-01-08T01:14:02.128Z,22.66
2023-01-08T01:16:18.665Z,22.78
2023-01-08T01:17:20.943Z,22.67
2023-01-08T01:18:23.147Z,22.67
2023-01-08T01:19:25.911Z,22.66
2023-01-08T01:20:30.211Z,22.66
2023-01-08T01:21:34.267Z,22.68
2023-01-08T01:22:38.288Z,22.67
2023-01-08T01:23:40.680Z,22.66
2023-01-08T01:24:43.080Z,22.66
2023-01-08T01:25:45.943Z,22.67
2023-01-08T01:26:51.392Z,22.66
2023-01-08T01:27:54.363Z,22.67
2023-01-08T01:28:57.242Z,22.67
2023-01-08T01:30:00.977Z,22.67
2023-01-08T01:31:03.942Z,22.66
2023-01-08T01:32:06.653Z,22.66
2023-01-08T01:33:09.662Z,22.66
2023-01-08T01:34:12.833Z,22.66
2023-01-08T01:35:15.210Z,22.66
2023-01-08T01:36:19.401Z,22.67
2023-01-08T01:37:21.765Z,22.66
2023-01-08T01:38:24.059Z,22.66
2023-01-08T01:39:26.477Z,22.66
2023-01-08T01:40:31.411Z,22.66
2023-01-08T01:41:44.436Z,22.66
2023-01-08T01:42:47.652Z,22.66
2023-01-08T01:43:50.375Z,22.66
2023-01-08T01:44:52.551Z,22.66
2023-01-08T01:45:56.327Z,22.65
2023-01-08T01:46:59.336Z,22.66
2023-01-08T01:48:11.494Z,22.65
2023-01-08T01:49:17.417Z,22.65
2023-01-08T01:50:24.135Z,22.66
2023-01-08T01:51:29.867Z,22.64
2023-01-08T01:52:34.008Z,22.64
2023-01-08T01:53:37.177Z,22.64
2023-01-08T01:54:40.894Z,22.64
2023-01-08T01:55:43.505Z,22.64
2023-01-08T01:56:46.165Z,22.63
2023-01-08T01:57:54.679Z,22.64
2023-01-08T01:58:59.027Z,22.63
2023-01-08T02:00:03.100Z,22.64
2023-01-08T02:01:08.253Z,22.63
2023-01-08T02:02:12.436Z,22.64
2023-01-08T02:03:15.224Z,22.63
2023-01-08T02:04:18.612Z,22.63
2023-01-08T02:05:21.737Z,22.63
2023-01-08T02:06:38.227Z,22.63
2023-01-08T02:07:45.243Z,22.64
2023-01-08T02:09:02.695Z,22.63
2023-01-08T02:11:50.800Z,22.73
2023-01-08T02:12:58.509Z,22.62
2023-01-08T02:14:10.651Z,22.60
2023-01-08T02:15:26.415Z,22.60
2023-01-08T02:16:39.282Z,22.58
2023-01-08T02:18:00.769Z,22.58
2023-01-08T02:20:30.492Z,22.67
2023-01-08T02:21:39.330Z,22.56
2023-01-08T02:22:54.756Z,22.55
2023-01-08T02:25:22.138Z,22.65
2023-01-08T02:26:31.103Z,22.54
2023-01-08T02:27:34.371Z,22.53
2023-01-08T02:28:47.893Z,22.54
2023-01-08T02:29:51.655Z,22.55
2023-01-08T02:30:54.575Z,22.54
2023-01-08T02:31:57.051Z,22.55
2023-01-08T02:32:59.447Z,22.56
2023-01-08T02:34:01.739Z,22.55
2023-01-08T02:35:05.602Z,22.56
2023-01-08T02:36:27.298Z,22.56
2023-01-08T02:37:30.802Z,22.57
2023-01-08T02:38:34.086Z,22.57
2023-01-08T02:39:58.323Z,22.57
2023-01-08T02:42:34.841Z,22.67
2023-01-08T02:43:45.574Z,22.57
2023-01-08T02:44:56.975Z,22.56
2023-01-08T02:46:00.663Z,22.55
2023-01-08T02:47:05.500Z,22.55
2023-01-08T02:48:43.966Z,22.56
2023-01-08T02:49:46.415Z,22.54
2023-01-08T02:51:01.167Z,22.54
2023-01-08T02:52:05.976Z,22.54
2023-01-08T02:54:35.365Z,22.65
2023-01-08T02:55:38.566Z,22.53
2023-01-08T02:56:44.151Z,22.53
2023-01-08T02:57:46.875Z,22.53
2023-01-08T02:58:50.608Z,22.53
2023-01-08T02:59:54.296Z,22.53
2023-01-08T03:00:56.828Z,22.54
2023-01-08T03:02:01.034Z,22.54
2023-01-08T03:04:45.412Z,22.67
2023-01-08T03:05:50.049Z,22.56
2023-01-08T03:06:53.054Z,22.56
2023-01-08T03:07:56.196Z,22.56
2023-01-08T03:08:59.101Z,22.56
2023-01-08T03:10:03.408Z,22.56
2023-01-08T03:11:07.364Z,22.56
2023-01-08T03:12:16.408Z,22.56
2023-01-08T03:14:43.086Z,22.70
2023-01-08T03:15:49.212Z,22.58
2023-01-08T03:16:57.741Z,22.58
2023-01-08T03:18:05.616Z,22.57
2023-01-08T03:19:18.828Z,22.58
2023-01-08T03:20:22.188Z,22.57
2023-01-08T03:21:25.164Z,22.59
2023-01-08T03:22:27.612Z,22.58
2023-01-08T03:23:31.733Z,22.57
2023-01-08T03:24:34.539Z,22.58
2023-01-08T03:25:38.318Z,22.58
2023-01-08T03:26:41.165Z,22.57
2023-01-08T03:27:47.935Z,22.58
2023-01-08T03:28:53.043Z,22.58
2023-01-08T03:29:56.562Z,22.58
2023-01-08T03:30:59.780Z,22.59
2023-01-08T03:32:05.463Z,22.57
2023-01-08T03:33:07.901Z,22.59
2023-01-08T03:34:11.406Z,22.59
2023-01-08T03:35:15.357Z,22.59
2023-01-08T03:36:22.260Z,22.61
2023-01-08T03:37:29.238Z,22.60
2023-01-08T03:38:33.561Z,22.61
2023-01-08T03:39:48.530Z,22.61
2023-01-08T03:42:10.781Z,22.72
2023-01-08T03:43:14.123Z,22.61
2023-01-08T03:44:17.616Z,22.58
2023-01-08T03:45:21.492Z,22.60
2023-01-08T03:46:30.088Z,22.61
2023-01-08T03:47:32.581Z,22.59
2023-01-08T03:48:34.878Z,22.61
2023-01-08T03:49:38.440Z,22.60
2023-01-08T03:50:41.805Z,22.61
2023-01-08T03:51:46.118Z,22.61
2023-01-08T03:52:49.339Z,22.60
2023-01-08T03:53:54.252Z,22.61
2023-01-08T03:54:56.608Z,22.61
2023-01-08T03:55:59.090Z,22.61
2023-01-08T03:57:02.167Z,22.61
2023-01-08T03:58:05.162Z,22.62
2023-01-08T03:59:11.125Z,22.62
2023-01-08T04:00:16.009Z,22.62
2023-01-08T04:01:19.039Z,22.61
2023-01-08T04:02:23.839Z,22.62
2023-01-08T04:03:28.004Z,22.62
2023-01-08T04:04:30.601Z,22.62
2023-01-08T04:05:33.776Z,22.62
2023-01-08T04:06:36.123Z,22.62
2023-01-08T04:07:38.545Z,22.62
2023-01-08T04:08:42.110Z,22.63
2023-01-08T04:09:44.313Z,22.63
2023-01-08T04:10:47.627Z,22.63
2023-01-08T04:11:51.693Z,22.63
2023-01-08T04:12:54.119Z,22.64
2023-01-08T04:13:57.071Z,22.63
2023-01-08T04:14:59.835Z,22.64
2023-01-08T04:16:02.233Z,22.64
2023-01-08T04:17:06.149Z,22.64
2023-01-08T04:18:08.759Z,22.64
2023-01-08T04:19:12.522Z,22.64
2023-01-08T04:20:16.044Z,22.64
2023-01-08T04:21:18.349Z,22.64
2023-01-08T04:22:20.744Z,22.64
2023-01-08T04:23:23.160Z,22.65
2023-01-08T04:24:25.995Z,22.64
2023-01-08T04:25:30.042Z,22.64
2023-01-08T04:26:33.178Z,22.64
2023-01-08T04:27:35.637Z,22.64
2023-01-08T04:28:38.898Z,22.64
2023-01-08T04:29:41.535Z,22.64
2023-01-08T04:30:44.895Z,22.63
2023-01-08T04:31:48.002Z,22.64
2023-01-08T04:32:51.539Z,22.63
2023-01-08T04:33:54.071Z,22.65
2023-01-08T04:34:56.490Z,22.64
2023-01-08T04:35:58.903Z,22.64
2023-01-08T04:37:02.514Z,22.64
2023-01-08T04:38:05.965Z,22.65
2023-01-08T04:39:10.066Z,22.64
2023-01-08T04:40:12.837Z,22.65
2023-01-08T04:41:17.597Z,22.65
2023-01-08T04:42:20.434Z,22.35
2023-01-08T04:43:22.797Z,22.65
2023-01-08T04:44:25.942Z,22.64
2023-01-08T04:45:28.687Z,22.64
2023-01-08T04:46:31.470Z,22.64
2023-01-08T04:47:34.018Z,22.64
2023-01-08T04:48:37.329Z,22.64
2023-01-08T04:49:40.369Z,22.64
2023-01-08T04:50:43.006Z,22.64
2023-01-08T04:51:45.360Z,22.65
2023-01-08T04:52:49.821Z,22.64
2023-01-08T04:53:54.314Z,22.65
2023-01-08T04:54:57.442Z,22.65
2023-01-08T04:56:04.557Z,22.65
2023-01-08T04:57:07.918Z,22.64
2023-01-08T04:58:11.688Z,22.65
2023-01-08T04:59:14.157Z,22.65
2023-01-08T05:00:17.220Z,22.64
2023-01-08T05:01:22.736Z,22.64
2023-01-08T05:02:27.330Z,22.64
2023-01-08T05:03:30.648Z,22.64
2023-01-08T05:04:33.143Z,22.64
2023-01-08T05:05:36.192Z,22.65
2023-01-08T05:06:39.329Z,22.64
2023-01-08T05:07:41.825Z,22.63
2023-01-08T05:08:44.348Z,22.64
2023-01-08T05:09:47.436Z,22.64
2023-01-08T05:10:50.321Z,22.64
2023-01-08T05:11:52.499Z,22.65
2023-01-08T05:12:59.574Z,22.64
2023-01-08T05:14:02.623Z,22.64
2023-01-08T05:15:05.765Z,22.65
2023-01-08T05:16:08.451Z,22.65
2023-01-08T05:17:10.948Z,22.65
2023-01-08T05:18:13.731Z,22.65
2023-01-08T05:19:16.211Z,22.65
2023-01-08T05:20:19.133Z,22.64
2023-01-08T05:21:21.619Z,22.64
2023-01-08T05:22:23.911Z,22.65
2023-01-08T05:23:26.915Z,22.64
2023-01-08T05:24:29.351Z,22.64
2023-01-08T05:25:32.016Z,22.64
2023-01-08T05:26:34.959Z,22.65
2023-01-08T05:27:38.291Z,22.65
2023-01-08T05:28:41.163Z,22.66
2023-01-08T05:29:43.915Z,22.66
2023-01-08T05:30:49.002Z,22.65
2023-01-08T05:31:51.435Z,22.66
2023-01-08T05:32:54.478Z,22.66
2023-01-08T05:33:58.843Z,22.66
2023-01-08T05:35:01.918Z,22.65
2023-01-08T05:36:08.984Z,22.66
2023-01-08T05:37:12.238Z,22.65
2023-01-08T05:38:16.168Z,22.65
2023-01-08T05:39:21.766Z,22.66
2023-01-08T05:40:24.945Z,22.65
2023-01-08T05:41:27.734Z,22.65
2023-01-08T05:42:30.158Z,22.65
2023-01-08T05:43:34.534Z,22.65
2023-01-08T05:44:36.978Z,22.64
2023-01-08T05:45:40.778Z,22.65
2023-01-08T05:46:43.727Z,22.64
2023-01-08T05:47:46.131Z,22.65
2023-01-08T05:48:48.887Z,22.65
2023-01-08T05:49:52.993Z,22.65
2023-01-08T05:50:55.663Z,22.66
2023-01-08T05:51:57.962Z,22.66
2023-01-08T05:53:00.464Z,22.65
2023-01-08T05:54:03.016Z,22.65
2023-01-08T05:55:06.759Z,22.65
2023-01-08T05:56:10.332Z,22.64
2023-01-08T05:57:12.802Z,22.65
2023-01-08T05:58:17.111Z,22.65
2023-01-08T05:59:19.465Z,22.65
2023-01-08T06:00:23.868Z,22.64
2023-01-08T06:01:26.380Z,22.64
2023-01-08T06:02:28.910Z,22.64
2023-01-08T06:03:31.289Z,22.64
2023-01-08T06:04:34.557Z,22.64
2023-01-08T06:05:37.246Z,22.65
2023-01-08T06:06:40.950Z,22.66
2023-01-08T06:07:43.401Z,22.64
2023-01-08T06:08:45.827Z,22.65
2023-01-08T06:09:48.266Z,22.64
2023-01-08T06:10:50.901Z,22.64
2023-01-08T06:11:54.234Z,22.65
2023-01-08T06:12:57.780Z,22.64
2023-01-08T06:14:01.559Z,22.65
2023-01-08T06:15:05.287Z,22.65
2023-01-08T06:16:07.965Z,22.65
2023-01-08T06:17:10.529Z,22.65
2023-01-08T06:18:14.168Z,22.59
2023-01-08T06:19:18.850Z,22.59
2023-01-08T06:20:21.362Z,22.65
2023-01-08T06:21:24.353Z,22.64
2023-01-08T06:22:27.080Z,22.66
2023-01-08T06:23:29.498Z,22.66
2023-01-08T06:24:32.055Z,22.65
2023-01-08T06:25:34.659Z,22.66
2023-01-08T06:26:38.853Z,22.65
2023-01-08T06:27:41.202Z,22.65
2023-01-08T06:28:43.619Z,22.66
2023-01-08T06:29:47.550Z,22.65
2023-01-08T06:30:51.603Z,22.64
2023-01-08T06:31:54.178Z,22.65
2023-01-08T06:32:59.054Z,22.65
2023-01-08T06:34:01.533Z,22.66
2023-01-08T06:35:05.731Z,22.64
2023-01-08T06:36:09.975Z,22.65
2023-01-08T06:37:12.427Z,22.64
2023-01-08T06:38:17.721Z,22.64
2023-01-08T06:39:20.792Z,22.63
2023-01-08T06:40:23.940Z,22.65
2023-01-08T06:41:26.474Z,22.65
2023-01-08T06:42:29.431Z,22.64
2023-01-08T06:43:36.102Z,22.65
2023-01-08T06:44:39.369Z,22.65
2023-01-08T06:45:41.655Z,22.65
2023-01-08T06:46:45.633Z,22.64
2023-01-08T06:47:48.043Z,22.65
2023-01-08T06:48:50.605Z,22.65
2023-01-08T06:49:53.487Z,22.64
2023-01-08T06:50:57.720Z,22.64
2023-01-08T06:52:01.515Z,22.64
2023-01-08T06:53:04.210Z,22.65
2023-01-08T06:54:06.675Z,22.65
2023-01-08T06:55:09.592Z,22.65
2023-01-08T06:56:12.928Z,22.66
2023-01-08T06:57:16.391Z,22.64
2023-01-08T06:58:19.766Z,22.65
2023-01-08T06:59:22.119Z,22.66
2023-01-08T07:00:25.707Z,22.65
2023-01-08T07:01:29.941Z,22.65
2023-01-08T07:02:33.550Z,22.65
2023-01-08T07:03:36.631Z,22.66
2023-01-08T07:04:40.000Z,22.66
2023-01-08T07:05:43.108Z,22.66
2023-01-08T07:06:46.223Z,22.66
2023-01-08T07:07:49.085Z,22.66
2023-01-08T07:08:52.171Z,22.66
2023-01-08T07:09:55.082Z,22.66
2023-01-08T07:11:03.167Z,22.66
2023-01-08T07:12:08.255Z,22.67
2023-01-08T07:13:12.229Z,22.66
2023-01-08T07:14:15.937Z,22.66
2023-01-08T07:15:18.180Z,22.66
2023-01-08T07:16:20.873Z,22.66
2023-01-08T07:17:23.705Z,22.67
2023-01-08T07:18:25.991Z,22.66
2023-01-08T07:19:29.356Z,22.65
2023-01-08T07:20:34.739Z,22.67
2023-01-08T07:21:38.484Z,22.67
2023-01-08T07:22:41.299Z,22.67
2023-01-08T07:23:46.531Z,22.67
2023-01-08T07:24:48.875Z,22.66
2023-01-08T07:25:51.166Z,22.65
2023-01-08T07:26:54.426Z,22.67
2023-01-08T07:27:56.870Z,22.66
2023-01-08T07:29:01.154Z,22.66
2023-01-08T07:30:05.462Z,22.65
2023-01-08T07:31:09.125Z,22.66
2023-01-08T07:32:12.854Z,22.65
2023-01-08T07:33:15.795Z,22.65
2023-01-08T07:34:18.636Z,22.66
2023-01-08T07:35:20.960Z,22.65
2023-01-08T07:36:25.370Z,22.64
2023-01-08T07:37:28.533Z,22.64
2023-01-08T07:38:31.392Z,22.65
2023-01-08T07:39:35.432Z,22.64
2023-01-08T07:40:39.581Z,22.65
2023-01-08T07:41:44.145Z,22.65
2023-01-08T07:42:46.920Z,22.64
2023-01-08T07:43:49.343Z,22.64
2023-01-08T07:44:51.961Z,22.63
2023-01-08T07:45:54.827Z,22.64
2023-01-08T07:46:57.568Z,22.64
2023-01-08T07:48:00.164Z,22.63
2023-01-08T07:49:02.895Z,22.63
2023-01-08T07:50:06.482Z,22.64
2023-01-08T07:51:09.140Z,22.64
2023-01-08T07:52:11.554Z,22.63
2023-01-08T07:53:16.335Z,22.64
2023-01-08T07:54:18.845Z,22.64
2023-01-08T07:55:22.740Z,22.63
2023-01-08T07:56:25.411Z,22.62
2023-01-08T07:57:30.118Z,22.63
2023-01-08T07:58:32.773Z,22.62
2023-01-08T07:59:36.114Z,22.62
2023-01-08T08:00:39.812Z,22.62
2023-01-08T08:01:42.664Z,22.62
2023-01-08T08:02:45.834Z,22.63
2023-01-08T08:03:48.368Z,22.62
2023-01-08T08:04:51.763Z,22.62
2023-01-08T08:05:54.214Z,22.62
2023-01-08T08:06:57.712Z,22.62
2023-01-08T08:08:01.296Z,22.62
2023-01-08T08:09:04.409Z,22.62
2023-01-08T08:10:07.806Z,22.62
2023-01-08T08:11:11.544Z,22.62
2023-01-08T08:12:15.327Z,22.61
2023-01-08T08:13:17.705Z,22.62
2023-01-08T08:14:20.722Z,22.62
2023-01-08T08:15:23.862Z,22.62
2023-01-08T08:16:27.818Z,22.62
2023-01-08T08:17:30.531Z,22.61
2023-01-08T08:18:32.736Z,22.62
2023-01-08T08:19:35.042Z,22.62
2023-01-08T08:20:37.538Z,22.61
2023-01-08T08:21:40.282Z,22.62
2023-01-08T08:22:42.460Z,22.61
2023-01-08T08:23:44.928Z,22.61
2023-01-08T08:24:47.961Z,22.61
2023-01-08T08:25:51.462Z,22.56
2023-01-08T08:26:54.636Z,22.56
2023-01-08T08:28:01.493Z,22.61
2023-01-08T08:29:04.145Z,22.61
2023-01-08T08:30:09.538Z,22.60
2023-01-08T08:31:12.163Z,22.60
2023-01-08T08:32:15.999Z,22.59
2023-01-08T08:33:19.389Z,22.60
2023-01-08T08:34:22.555Z,22.60
2023-01-08T08:35:25.711Z,22.61
2023-01-08T08:36:30.352Z,22.61
2023-01-08T08:37:32.796Z,22.61
2023-01-08T08:38:37.047Z,22.61
2023-01-08T08:39:39.452Z,22.60
2023-01-08T08:40:42.166Z,22.61
2023-01-08T08:41:44.981Z,22.62
2023-01-08T08:42:48.082Z,22.62
2023-01-08T08:43:52.299Z,22.62
2023-01-08T08:44:55.792Z,22.62
2023-01-08T08:45:58.673Z,22.61
2023-01-08T08:47:01.761Z,22.61
2023-01-08T08:48:08.018Z,22.61
2023-01-08T08:49:11.619Z,22.61
2023-01-08T08:50:15.523Z,22.61
2023-01-08T08:51:18.492Z,22.62
2023-01-08T08:52:21.070Z,22.63
2023-01-08T08:53:23.352Z,22.62
2023-01-08T08:54:26.146Z,22.63
2023-01-08T08:55:28.512Z,22.62
2023-01-08T08:56:30.935Z,22.63
2023-01-08T08:57:34.063Z,22.63
2023-01-08T08:58:36.542Z,22.63
2023-01-08T08:59:38.969Z,22.63
2023-01-08T09:00:43.550Z,22.64
2023-01-08T09:01:46.447Z,22.64
2023-01-08T09:02:51.855Z,22.64
2023-01-08T09:03:54.429Z,22.64
2023-01-08T09:04:57.536Z,22.64
2023-01-08T09:06:01.687Z,22.64
2023-01-08T09:07:04.153Z,22.63
2023-01-08T09:08:07.439Z,22.63
2023-01-08T09:09:09.835Z,22.64
2023-01-08T09:10:13.595Z,22.64
2023-01-08T09:11:16.202Z,22.63
2023-01-08T09:12:19.019Z,22.64
2023-01-08T09:13:21.498Z,22.64
2023-01-08T09:14:25.313Z,22.65
2023-01-08T09:15:28.807Z,22.65
2023-01-08T09:16:33.120Z,22.65
2023-01-08T09:17:36.340Z,22.65
2023-01-08T09:18:38.656Z,22.65
2023-01-08T09:19:41.638Z,22.65
2023-01-08T09:20:44.064Z,22.65
2023-01-08T09:21:47.255Z,22.65
2023-01-08T09:22:50.403Z,22.65
2023-01-08T09:23:52.855Z,22.64
2023-01-08T09:24:55.180Z,22.66
2023-01-08T09:26:05.577Z,22.65
2023-01-08T09:27:10.923Z,22.66
2023-01-08T09:28:12.620Z,22.66
2023-01-08T09:29:15.141Z,22.65
2023-01-08T09:30:18.459Z,22.65
2023-01-08T09:31:22.296Z,22.65
2023-01-08T09:32:24.849Z,22.65
2023-01-08T09:33:27.279Z,22.65
2023-01-08T09:34:31.083Z,22.65
2023-01-08T09:35:34.774Z,22.65
2023-01-08T09:36:37.967Z,22.65
2023-01-08T09:37:40.641Z,22.65
2023-01-08T09:38:44.497Z,22.64
2023-01-08T09:39:51.136Z,22.64
2023-01-08T09:40:56.971Z,22.64
2023-01-08T09:42:03.057Z,22.65
2023-01-08T09:43:05.707Z,22.64
2023-01-08T09:44:11.332Z,22.65
2023-01-08T09:46:28.834Z,22.76
2023-01-08T09:47:35.041Z,22.64
2023-01-08T09:48:39.400Z,22.64
2023-01-08T09:49:43.652Z,22.65
2023-01-08T09:50:48.133Z,22.64
2023-01-08T09:51:51.877Z,22.64
2023-01-08T09:52:55.055Z,22.64
2023-01-08T09:53:57.500Z,22.65
2023-01-08T09:55:00.753Z,22.65
2023-01-08T09:56:10.298Z,22.64
2023-01-08T09:57:16.154Z,22.65
2023-01-08T09:58:31.402Z,22.65
2023-01-08T09:59:33.679Z,22.65
2023-01-08T10:00:37.965Z,22.66
2023-01-08T10:01:40.592Z,22.64
2023-01-08T10:02:44.141Z,22.65
2023-01-08T10:04:06.622Z,22.64
2023-01-08T10:05:15.263Z,22.65
2023-01-08T10:06:18.323Z,22.64
2023-01-08T10:07:21.993Z,22.63
2023-01-08T10:08:24.497Z,22.64
2023-01-08T10:09:30.188Z,22.63
2023-01-08T10:10:33.269Z,22.63
2023-01-08T10:11:41.871Z,22.63
2023-01-08T10:12:44.330Z,22.62
2023-01-08T10:13:55.654Z,22.62
2023-01-08T10:16:17.764Z,22.74
2023-01-08T12:08:44.576Z,19.72
2023-01-08T12:11:18.160Z,19.84
2023-01-08T12:12:58.604Z,19.83
2023-01-08T12:14:10.455Z,19.95
2023-01-08T12:15:21.709Z,20.13
2023-01-08T12:16:31.332Z,20.24
2023-01-08T12:17:37.493Z,20.37
2023-01-08T12:19:17.310Z,20.50
2023-01-08T12:22:11.632Z,20.92
2023-01-08T12:23:33.323Z,20.90
2023-01-08T12:24:51.473Z,21.01
2023-01-08T12:26:00.957Z,21.11
2023-01-08T12:27:48.356Z,21.20
2023-01-08T12:28:37.791Z,21.29
2023-01-08T12:30:10.001Z,21.37
2023-01-08T12:31:26.971Z,21.43
2023-01-08T12:33:58.660Z,21.70
2023-01-08T12:36:29.295Z,21.80
2023-01-08T12:37:53.190Z,21.74
2023-01-08T12:39:02.319Z,21.78
2023-01-08T12:40:18.312Z,21.84
2023-01-08T12:41:21.700Z,21.88
2023-01-08T12:42:27.440Z,21.93
2023-01-08T12:43:36.196Z,21.97
2023-01-08T12:44:38.531Z,22.00
2023-01-08T12:45:46.668Z,22.04
2023-01-08T12:46:49.776Z,22.05
2023-01-08T12:47:56.033Z,22.10
2023-01-08T12:48:59.285Z,22.13
2023-01-08T12:50:17.677Z,22.15
2023-01-08T12:51:25.835Z,22.18
2023-01-08T12:52:34.036Z,22.22
2023-01-08T12:54:00.259Z,22.24
2023-01-08T12:55:30.384Z,22.26
2023-01-08T12:56:42.595Z,22.28
2023-01-08T12:57:49.961Z,22.29
2023-01-08T12:59:12.785Z,22.30
2023-01-08T13:01:45.281Z,22.44
2023-01-08T13:02:57.021Z,22.33
2023-01-08T13:04:00.139Z,22.33
2023-01-08T13:05:21.887Z,22.35
2023-01-08T13:06:25.285Z,22.36
2023-01-08T13:07:33.078Z,22.38
2023-01-08T13:08:36.642Z,22.39
2023-01-08T13:09:39.566Z,22.38
2023-01-08T13:10:50.287Z,22.40
2023-01-08T13:11:54.884Z,22.41
2023-01-08T13:13:00.898Z,22.42
2023-01-08T13:14:09.818Z,22.44
2023-01-08T13:16:34.785Z,22.57
2023-01-08T13:17:37.160Z,22.47
2023-01-08T13:18:39.845Z,22.47
2023-01-08T13:19:45.761Z,22.49
2023-01-08T13:20:55.534Z,22.49
2023-01-08T13:21:59.424Z,22.51
2023-01-08T13:23:03.627Z,22.50
2023-01-08T13:24:26.653Z,22.51
2023-01-08T13:25:34.375Z,22.52
2023-01-08T13:26:37.039Z,22.53
2023-01-08T13:27:39.425Z,22.53
2023-01-08T13:28:45.135Z,22.54
2023-01-08T13:29:49.539Z,22.54
2023-01-08T13:30:55.152Z,22.54
2023-01-08T13:31:58.809Z,22.54
2023-01-08T13:33:01.971Z,22.55
2023-01-08T13:34:06.632Z,22.55
2023-01-08T13:35:19.139Z,22.55
2023-01-08T13:36:26.241Z,22.55
2023-01-08T13:37:31.777Z,22.55
2023-01-08T13:38:35.370Z,22.56
2023-01-08T13:39:39.343Z,22.56
2023-01-08T13:40:53.206Z,22.57
2023-01-08T13:42:14.471Z,22.57
2023-01-08T13:43:38.450Z,22.57
2023-01-08T13:44:42.028Z,22.58
2023-01-08T13:47:02.972Z,22.67
2023-01-08T13:48:06.117Z,22.56
2023-01-08T13:49:10.720Z,22.54
2023-01-08T13:50:24.467Z,22.55
2023-01-08T13:51:40.950Z,22.56
2023-01-08T13:52:45.292Z,22.57
2023-01-08T13:53:48.678Z,22.56
2023-01-08T13:54:51.488Z,22.51
2023-01-08T13:56:01.608Z,22.51
2023-01-08T13:57:13.160Z,22.56
2023-01-08T13:58:21.118Z,22.57
2023-01-08T13:59:42.056Z,22.56
2023-01-08T14:00:47.316Z,22.56
2023-01-08T14:01:57.714Z,22.56
2023-01-08T14:03:00.389Z,22.56
2023-01-08T14:04:03.255Z,22.56
2023-01-08T14:05:25.336Z,22.56
2023-01-08T14:06:30.474Z,22.56
2023-01-08T14:07:38.362Z,22.55
2023-01-08T14:09:01.405Z,22.55
2023-01-08T14:10:10.569Z,22.54
2023-01-08T14:11:12.994Z,22.53
2023-01-08T14:13:35.079Z,22.61
2023-01-08T14:14:38.203Z,22.49
2023-01-08T14:15:40.469Z,22.47
2023-01-08T14:16:45.743Z,22.47
2023-01-08T14:17:48.913Z,22.46
2023-01-08T14:18:54.513Z,22.47
2023-01-08T14:19:57.698Z,22.46
2023-01-08T14:21:00.529Z,22.46
2023-01-08T14:22:04.329Z,22.46
2023-01-08T14:24:35.960Z,22.58
2023-01-08T14:25:40.205Z,22.47
2023-01-08T14:26:44.681Z,22.47
2023-01-08T14:27:57.885Z,22.47
2023-01-08T14:29:01.550Z,22.47
2023-01-08T14:30:15.967Z,22.48
2023-01-08T14:31:22.957Z,22.48
2023-01-08T14:32:28.692Z,22.49
2023-01-08T14:33:37.459Z,22.49
2023-01-08T14:34:42.037Z,22.48
2023-01-08T14:35:44.812Z,22.48
2023-01-08T14:36:51.842Z,22.48
2023-01-08T14:37:54.774Z,22.49
2023-01-08T14:38:57.072Z,22.48
2023-01-08T14:39:59.368Z,22.48
2023-01-08T14:41:07.380Z,22.49
2023-01-08T14:42:41.439Z,22.49
2023-01-08T14:43:47.797Z,22.50
2023-01-08T14:46:28.508Z,22.61
2023-01-08T14:47:39.669Z,22.49
2023-01-08T14:48:44.341Z,22.49
2023-01-08T14:49:51.423Z,22.48
2023-01-08T14:51:01.523Z,22.48
2023-01-08T14:52:04.255Z,22.47
2023-01-08T14:53:09.525Z,22.48
2023-01-08T14:54:18.002Z,22.48
2023-01-08T14:55:21.112Z,22.48
2023-01-08T14:57:45.971Z,22.60
2023-01-08T14:58:50.446Z,22.50
2023-01-08T15:01:17.261Z,22.61
2023-01-08T15:02:35.250Z,22.50
2023-01-08T15:03:40.289Z,22.51
2023-01-08T15:04:43.215Z,22.51
2023-01-08T15:05:50.335Z,22.50
2023-01-08T15:06:53.039Z,22.52
2023-01-08T15:08:01.973Z,22.52
2023-01-08T15:09:21.925Z,22.52
2023-01-08T15:10:36.151Z,22.52
2023-01-08T15:11:53.276Z,22.52
2023-01-08T15:14:13.511Z,22.63
2023-01-08T15:15:22.659Z,22.52
2023-01-08T15:16:30.324Z,22.51
2023-01-08T15:17:33.729Z,22.52
2023-01-08T15:19:55.716Z,22.61
2023-01-08T15:20:59.199Z,22.52
2023-01-08T15:22:01.965Z,22.51
2023-01-08T15:23:05.383Z,22.52
2023-01-08T15:24:10.134Z,22.51
2023-01-08T15:25:22.141Z,22.53
2023-01-08T15:26:25.216Z,22.54
2023-01-08T15:27:28.035Z,22.54
2023-01-08T15:28:30.881Z,22.54
2023-01-08T15:29:33.591Z,22.55
2023-01-08T15:30:37.612Z,22.55
2023-01-08T15:31:43.779Z,22.55
2023-01-08T15:32:46.429Z,22.56
2023-01-08T15:33:49.208Z,22.55
2023-01-08T15:34:52.120Z,22.56
2023-01-08T15:35:54.750Z,22.56
2023-01-08T15:36:59.332Z,22.56
2023-01-08T15:38:02.754Z,22.56
2023-01-08T15:39:06.489Z,22.56
2023-01-08T15:40:12.433Z,22.51
2023-01-08T15:41:22.338Z,22.51
2023-01-08T15:42:48.380Z,22.57
2023-01-08T15:43:53.004Z,22.57
2023-01-08T15:44:56.083Z,22.57
2023-01-08T15:45:59.547Z,22.56
2023-01-08T15:47:03.161Z,22.56
2023-01-08T15:48:07.287Z,22.55
2023-01-08T15:49:11.679Z,22.56
2023-01-08T15:50:15.390Z,22.56
2023-01-08T15:51:18.399Z,22.56
2023-01-08T15:52:23.346Z,22.56
2023-01-08T15:53:26.826Z,22.57
2023-01-08T15:54:30.415Z,22.55
2023-01-08T15:55:33.644Z,22.56
2023-01-08T15:56:38.045Z,22.56
2023-01-08T15:57:41.427Z,22.57
2023-01-08T15:58:46.058Z,22.57
2023-01-08T15:59:48.558Z,22.57
2023-01-08T16:00:50.976Z,22.57
2023-01-08T16:01:53.518Z,22.57
2023-01-08T16:02:58.394Z,22.57
2023-01-08T16:04:02.061Z,22.58
2023-01-08T16:05:05.928Z,22.57
2023-01-08T16:06:09.513Z,22.58
2023-01-08T16:07:14.110Z,22.57
2023-01-08T16:08:17.905Z,22.58
2023-01-08T16:09:21.184Z,22.58
2023-01-08T16:10:25.342Z,22.58
2023-01-08T16:11:29.582Z,22.58
2023-01-08T16:12:32.533Z,22.58
2023-01-08T16:13:35.208Z,22.58
2023-01-08T16:14:39.064Z,22.58
2023-01-08T16:15:43.269Z,22.57
2023-01-08T16:16:46.012Z,22.58
2023-01-08T16:17:48.532Z,22.58
2023-01-08T16:18:52.105Z,22.58
2023-01-08T16:19:56.704Z,22.59
2023-01-08T16:21:01.482Z,22.58
2023-01-08T16:22:05.885Z,22.59
2023-01-08T16:23:08.354Z,22.58
2023-01-08T16:24:12.298Z,22.58